Linlithgo, New York
Current Conditions -  °F | °C
As of 2:53 AM on Thursday 27 Nov 2014 (Local Time) from KPOU Reporting Station
Overcast Overcast  
Wind Chill: 25°   Ceiling: 8000
Heat Index: 33°   Visibility: 10mi
Dew Point: 28°   Wind: 9mph
Humidity: 82%   Direction: 10°N
Pressure: 29.9"   Gusts: NA
Location:  42.118°N, 73.8553°W
Report Text: KPOU 270753Z 01008KT 10SM FEW060 BKN080 OVC120 01/M02 A2990 RMK AO2 SNE10 SLP124 P0000 T00061022
Loading
Personal Weather Stations






























Interactive Weather Map New forecast layout! Learn more

10-Day Weather Forecast

Advertisements
Track Severe Weather on mobile